Wheaton, MO (64874)

4:02 PM CDT on September 04, 2015 (GMT -0500)
Farm Road 2100 | | Change Station
CLOSE
Current Station
Personal Weather Station
Location: Wheaton, MO
Elevation: 1335 ft
Nearby Weather Stations

Elev 1335 ft 36.79 °N, 94.07 °W | Updated 35 seconds ago

Mostly Cloudy
Mostly Cloudy
90.4 °F
Feels Like 98 °F
N
8.0
Wind Variable Wind from SE
Gusts 11.0 mph

Today
High -- | Low -- °F
--% Chance of Precip.
Yesterday
High -- | Low -- °F
Precip. -- in
6:49 AM 7:40 PM
Waning Gibbous, 56% visible
Pressure 30.01 in
Visibility 10.0 miles
Clouds Scattered Clouds 4800 ft
Mostly Cloudy 5500 ft
Mostly Cloudy 8000 ft
Heat Index 98 °F
Dew Point 72 °F
Humidity 55%
Rainfall 0.00 in
Snow Depth Not available.
UV 4 out of 12
Pollen 11.10 out of 12
Air Quality Not available.
Flu Activity Not available.
METAR KHFJ 042035Z AUTO 18006KT 10SM SCT048 BKN055 BKN080 31/20 A3001 RMK AO2
Pressure 30.01 in
Visibility 10.0 miles
Clouds Scattered Clouds 4800 ft
Mostly Cloudy 5500 ft
Mostly Cloudy 8000 ft
Heat Index 98 °F
Dew Point 72 °F
Humidity 55%
Rainfall 0.00 in
Snow Depth Not available.
UV 4 out of 12
Pollen 11.10 out of 12
Air Quality Not available.
Flu Activity Not available.
METAR KHFJ 042035Z AUTO 18006KT 10SM SCT048 BKN055 BKN080 31/20 A3001 RMK AO2

10-Day Weather Forecast

×

Almanac

Astronomy

Sep. 04, 2015 Rise Set
Actual Time
Civil Twilight
Nautical Twilight
Astronomical Twilight
Moon
Length of Visible Light
Length of Day
Tomorrow will be .
, % of the Moon is Illuminated

Today's Extremes

State Highs State Lows

Community

WunderPhotos

Upload Photos

1,852,290 photos uploaded!

WunderBlogs® & News

Nearby

Air Quality

  Air Quality AQ Index Pollutant
Not available.

Snow Depth

Station Depth Elevation

Earthquake Activity

City Distance Mag. Time & Date
Minimum magnitude displayed is 2.5.

Coastal Water Temperatures

Place Temperature

Stations

Nearby Weather Stations

Station Location Temp. Windchill Dew Point Humidity Wind Precip. Elev Updated Type